KBNO/BNO METAR and TAF weather

Enter ICAO airport designator
Station Type Date Time Source
KBNO METAR 2019/08/25 02:53 UTC NOAA

KBNO 250253Z AUTO 33010KT 10SM CLR 26/M02 A2998 RMK AO2 SLP118 T02561017 53007


Station Type Date Time Source
KBNO Decoded METAR 2019/08/25 02:53 UTC NOAA

Station name not available
Aug 24, 2019 - 10:53 PM EDT / 2019.08.25 0253 UTC
Wind: from the NNW (330 degrees) at 12 MPH (10 KT):0
Visibility: 10 mile(s):0
Sky conditions: clear
Temperature: 78.1 F (25.6 C)
Dew Point: 28.9 F (-1.7 C)
Relative Humidity: 16%
Pressure (altimeter): 29.98 in. Hg (1015 hPa)
Pressure tendency: 0.02 inches (0.7 hPa) higher than three hours ago
ob: KBNO 250253Z AUTO 33010KT 10SM CLR 26/M02 A2998 RMK AO2 SLP118 T02561017 53007
cycle: 3

Station Type Date Time Source
KBNO TAF 2019/08/24 18:22 UTC NOAA

TAF KBNO 241720Z 2418/2518 VRB03KT P6SM SCT250
FM242000 27015G25KT P6SM SKC
FM250200 26007KT P6SM SKC

Example: see airport list